Time;durP1;ratioP1;P1;durP2;ratioP2;P2;SDS_P1;SDS_P2;PMS_P1;PMS_P2;Temp;Humidity;BMP_temperature;BMP_pressure;BME280_temperature;BME280_humidity;BME280_pressure;Samples;Min_cycle;Max_cycle;Signal;HPM_P1;HPM_P2
2023/04/20 00:01:46;;;;;;;7.32;3.90;;;3.50;99.90;;;;;;4954308;29;20035;-74
2023/04/20 00:04:15;;;;;;;6.95;3.60;;;3.50;99.90;;;;;;4948309;28;20134;-75
2023/04/20 00:06:44;;;;;;;4.93;3.45;;;3.50;99.90;;;;;;4951948;28;20442;-74
2023/04/20 00:09:12;;;;;;;5.75;3.97;;;3.50;99.90;;;;;;4956403;28;20031;-75
2023/04/20 00:11:38;;;;;;;6.70;3.60;;;3.40;99.90;;;;;;4955811;29;20023;-74
2023/04/20 00:14:04;;;;;;;6.93;4.07;;;3.30;99.90;;;;;;4954951;29;20114;-73
2023/04/20 00:16:29;;;;;;;7.03;3.85;;;3.30;99.90;;;;;;4953518;29;20039;-74
2023/04/20 00:18:55;;;;;;;4.55;3.60;;;3.30;99.90;;;;;;4953693;29;20027;-72
2023/04/20 00:21:22;;;;;;;7.00;4.05;;;3.20;99.90;;;;;;4953337;29;20031;-74
2023/04/20 00:23:49;;;;;;;7.00;4.47;;;3.20;99.90;;;;;;4954058;29;20484;-74
2023/04/20 00:26:15;;;;;;;9.02;4.60;;;3.10;99.90;;;;;;4948182;28;20058;-74
2023/04/20 00:28:41;;;;;;;10.68;4.60;;;3.10;99.90;;;;;;4953470;28;20027;-74
2023/04/20 00:31:07;;;;;;;6.68;4.60;;;3.00;99.90;;;;;;4952518;29;20475;-74
2023/04/20 00:33:32;;;;;;;7.15;4.50;;;3.00;99.90;;;;;;4953842;29;20035;-73
2023/04/20 00:35:58;;;;;;;7.88;4.38;;;2.90;99.90;;;;;;4953712;29;20419;-70
2023/04/20 00:38:23;;;;;;;7.57;4.80;;;2.90;99.90;;;;;;4954898;28;20054;-73
2023/04/20 00:40:52;;;;;;;9.68;5.15;;;2.90;99.90;;;;;;4953747;29;20388;-74
2023/04/20 00:43:19;;;;;;;8.90;5.13;;;2.90;99.90;;;;;;4952217;29;20677;-74
2023/04/20 00:45:45;;;;;;;9.07;4.47;;;2.80;99.90;;;;;;4953671;29;20027;-73
2023/04/20 00:48:11;;;;;;;7.45;3.95;;;2.70;99.90;;;;;;4952542;29;20383;-74
2023/04/20 00:50:38;;;;;;;7.53;4.47;;;;;;;;;;4953746;29;20505;-74
2023/04/20 00:53:05;;;;;;;7.78;4.45;;;;;;;;;;4950623;28;20106;-73
2023/04/20 00:55:31;;;;;;;8.25;4.25;;;;;;;;;;4965741;28;20398;-74
2023/04/20 00:57:57;;;;;;;10.57;4.70;;;;;;;;;;4972391;28;20035;-72
2023/04/20 01:00:24;;;;;;;8.23;4.22;;;;;;;;;;4954066;28;20046;-75
2023/04/20 01:02:50;;;;;;;5.53;3.92;;;;;;;;;;4940681;28;20051;-74
2023/04/20 01:05:16;;;;;;;7.97;4.55;;;2.60;99.90;;;;;;4952715;29;20110;-73
2023/04/20 01:07:42;;;;;;;7.95;4.10;;;2.60;99.90;;;;;;4952331;29;20110;-74
2023/04/20 01:10:08;;;;;;;7.90;4.25;;;2.50;99.90;;;;;;4952143;29;20457;-74
2023/04/20 01:12:34;;;;;;;6.28;4.18;;;2.50;99.90;;;;;;4948481;29;20031;-73
2023/04/20 01:15:01;;;;;;;7.15;4.60;;;2.40;99.90;;;;;;4952206;29;20051;-71
2023/04/20 01:17:26;;;;;;;6.22;4.68;;;2.30;99.90;;;;;;4952717;29;20031;-74
2023/04/20 01:19:52;;;;;;;9.85;5.07;;;2.30;99.90;;;;;;4956736;28;20034;-74
2023/04/20 01:22:20;;;;;;;9.13;5.18;;;2.30;99.90;;;;;;4952128;29;20023;-73
2023/04/20 01:24:46;;;;;;;9.45;5.10;;;2.30;99.90;;;;;;4952811;29;20078;-73
2023/04/20 01:27:15;;;;;;;8.55;4.60;;;2.30;99.90;;;;;;4951962;29;20034;-74
2023/04/20 01:29:40;;;;;;;6.20;4.78;;;2.20;99.90;;;;;;4952928;29;20039;-73
2023/04/20 01:32:06;;;;;;;8.65;5.70;;;2.20;99.90;;;;;;4944145;29;20085;-74
2023/04/20 01:34:32;;;;;;;7.82;4.53;;;2.20;99.90;;;;;;4948406;28;20042;-73
2023/04/20 01:36:58;;;;;;;6.70;4.47;;;2.20;99.90;;;;;;4948014;28;20054;-71
2023/04/20 01:39:24;;;;;;;10.07;4.55;;;2.20;99.90;;;;;;4957285;28;20473;-74
2023/04/20 01:41:50;;;;;;;9.90;5.22;;;2.20;99.90;;;;;;4956223;29;20094;-74
2023/04/20 01:44:16;;;;;;;6.97;4.55;;;2.10;99.90;;;;;;4956126;29;20185;-72
2023/04/20 01:46:42;;;;;;;8.40;5.25;;;2.00;99.90;;;;;;4956116;29;20041;-73
2023/04/20 01:49:08;;;;;;;6.93;5.18;;;2.00;99.90;;;;;;4955962;29;20031;-73
2023/04/20 01:51:34;;;;;;;9.30;5.43;;;2.00;99.90;;;;;;4956073;29;20035;-74
2023/04/20 01:54:00;;;;;;;8.25;5.03;;;2.00;99.90;;;;;;4955209;28;20476;-70
2023/04/20 01:56:26;;;;;;;10.68;5.30;;;2.00;99.90;;;;;;4956672;29;20039;-75
2023/04/20 01:58:52;;;;;;;9.40;5.25;;;2.00;99.90;;;;;;4959304;29;20133;-72
2023/04/20 02:01:17;;;;;;;7.25;4.85;;;2.00;99.90;;;;;;4958152;29;20039;-72
2023/04/20 02:03:43;;;;;;;9.55;5.10;;;2.00;99.90;;;;;;4960744;29;20098;-73
2023/04/20 02:06:09;;;;;;;10.38;5.72;;;1.90;99.90;;;;;;4956524;29;20038;-74
2023/04/20 02:08:35;;;;;;;10.95;5.90;;;1.90;99.90;;;;;;4957416;29;20480;-74
2023/04/20 02:11:00;;;;;;;9.43;5.18;;;1.90;99.90;;;;;;4951657;28;20102;-70
2023/04/20 02:13:26;;;;;;;9.98;4.88;;;1.90;99.90;;;;;;4956568;29;20034;-73
2023/04/20 02:15:52;;;;;;;10.00;4.95;;;2.10;99.90;;;;;;4956225;29;20035;-74
2023/04/20 02:18:18;;;;;;;7.35;5.45;;;;;;;;;;4954827;29;20031;-73
2023/04/20 02:20:44;;;;;;;10.07;5.70;;;;;;;;;;4956436;29;20051;-72
2023/04/20 02:23:10;;;;;;;10.13;5.65;;;;;;;;;;4955037;29;20032;-73
2023/04/20 02:25:36;;;;;;;13.20;5.95;;;;;;;;;;4956196;29;20156;-73
2023/04/20 02:28:02;;;;;;;7.85;5.68;;;;;;;;;;4949814;28;20077;-73
2023/04/20 02:30:28;;;;;;;8.27;5.93;;;;;;;;;;4956369;29;20070;-74
2023/04/20 02:32:55;;;;;;;8.13;6.05;;;;;;;;;;4955535;29;20034;-73
2023/04/20 02:35:21;;;;;;;11.43;5.80;;;;;;;;;;4954984;29;20167;-74
2023/04/20 02:37:47;;;;;;;9.50;5.43;;;;;;;;;;4955387;29;20146;-74
2023/04/20 02:40:13;;;;;;;8.73;6.13;;;;;;;;;;4955123;29;20055;-73
2023/04/20 02:42:39;;;;;;;9.35;6.15;;;;;;;;;;4951660;28;20097;-73
2023/04/20 02:45:05;;;;;;;8.35;5.50;;;;;;;;;;4949071;28;20115;-74
2023/04/20 02:47:31;;;;;;;7.38;5.18;;;;;;;;;;4955126;29;20038;-74
2023/04/20 02:49:57;;;;;;;8.20;5.78;;;;;;;;;;4955217;29;20102;-72
2023/04/20 02:52:23;;;;;;;7.95;5.72;;;;;;;;;;4953834;28;20055;-74
2023/04/20 02:54:49;;;;;;;11.02;6.18;;;;;;;;;;4955437;29;20054;-74
2023/04/20 02:57:15;;;;;;;10.43;6.72;;;;;;;;;;4953849;29;20368;-73
2023/04/20 02:59:42;;;;;;;10.20;5.85;;;;;;;;;;4955533;29;20026;-73
2023/04/20 03:02:08;;;;;;;11.93;6.55;;;;;;;;;;4953128;28;20334;-74
2023/04/20 03:04:34;;;;;;;11.55;6.38;;;;;;;;;;4955250;29;20043;-74
2023/04/20 03:07:00;;;;;;;9.63;6.30;;;;;;;;;;4954403;29;20031;-71
2023/04/20 03:09:26;;;;;;;11.88;6.55;;;;;;;;;;4954842;29;20453;-73
2023/04/20 03:11:53;;;;;;;10.95;6.05;;;1.50;99.90;;;;;;4953586;29;20049;-74
2023/04/20 03:14:18;;;;;;;10.45;6.70;;;1.40;99.90;;;;;;4954657;29;20027;-74
2023/04/20 03:16:47;;;;;;;9.93;6.57;;;;;;;;;;4954291;29;20089;-75
2023/04/20 03:19:13;;;;;;;9.02;6.63;;;;;;;;;;4953379;28;20114;-74
2023/04/20 03:21:39;;;;;;;9.40;6.32;;;;;;;;;;4954788;28;20396;-74
2023/04/20 03:24:06;;;;;;;11.00;6.72;;;;;;;;;;4954260;29;20090;-74
2023/04/20 03:26:32;;;;;;;10.63;6.70;;;;;;;;;;4954110;29;20035;-74
2023/04/20 03:28:58;;;;;;;14.27;6.60;;;;;;;;;;4953827;29;20027;-70
2023/04/20 03:31:24;;;;;;;9.80;6.78;;;;;;;;;;4954314;29;20015;-74
2023/04/20 03:33:50;;;;;;;11.65;6.20;;;;;;;;;;4955267;29;20476;-75
2023/04/20 03:36:16;;;;;;;10.55;6.45;;;;;;;;;;4950539;28;20038;-70
2023/04/20 03:38:42;;;;;;;11.55;6.15;;;;;;;;;;4950172;28;20034;-74
2023/04/20 03:41:08;;;;;;;12.05;6.28;;;;;;;;;;4958230;28;20027;-73
2023/04/20 03:43:34;;;;;;;9.63;6.15;;;;;;;;;;4954881;29;20384;-74
2023/04/20 03:46:00;;;;;;;11.27;6.78;;;;;;;;;;4953689;29;20073;-71
2023/04/20 03:48:26;;;;;;;12.80;7.30;;;;;;;;;;4954045;29;20047;-74
2023/04/20 03:50:52;;;;;;;14.48;6.63;;;;;;;;;;4954995;29;20050;-74
2023/04/20 03:53:18;;;;;;;10.60;6.38;;;;;;;;;;4954172;29;20081;-73
2023/04/20 03:55:44;;;;;;;8.07;5.70;;;;;;;;;;4954399;28;20420;-74
2023/04/20 03:58:10;;;;;;;10.55;6.53;;;;;;;;;;4948321;28;20035;-74
2023/04/20 04:00:36;;;;;;;12.98;7.25;;;;;;;;;;4955550;29;20023;-74
2023/04/20 04:03:02;;;;;;;9.60;6.70;;;;;;;;;;4953725;28;20047;-73
2023/04/20 04:05:28;;;;;;;11.88;6.80;;;;;;;;;;4938094;29;20113;-76
2023/04/20 04:07:55;;;;;;;12.10;6.90;;;;;;;;;;4956138;29;20481;-74
2023/04/20 04:10:20;;;;;;;15.50;7.50;;;;;;;;;;4957077;29;20094;-74
2023/04/20 04:12:46;;;;;;;9.30;7.05;;;;;;;;;;4956156;29;20118;-74
2023/04/20 04:15:12;;;;;;;12.25;6.78;;;;;;;;;;4959747;28;20114;-74
2023/04/20 04:17:39;;;;;;;11.18;7.65;;;;;;;;;;4953229;28;20130;-74
2023/04/20 04:20:09;;;;;;;10.07;6.78;;;;;;;;;;4949469;29;20172;-74
2023/04/20 04:22:35;;;;;;;;;;;;;;;;;;4949388;29;20027;-73
2023/04/20 04:25:01;;;;;;;10.88;6.68;;;;;;;;;;4945017;28;19974;-76
2023/04/20 04:27:28;;;;;;;14.23;7.30;;;;;;;;;;4950961;29;20035;-73
2023/04/20 04:29:55;;;;;;;13.98;7.07;;;;;;;;;;4950181;29;20488;-74
2023/04/20 04:32:23;;;;;;;15.52;8.07;;;;;;;;;;4947563;29;20038;-73
2023/04/20 04:34:49;;;;;;;13.15;7.45;;;;;;;;;;4948353;29;20041;-74
2023/04/20 04:37:15;;;;;;;13.95;7.85;;;;;;;;;;4945258;29;20031;-74
2023/04/20 04:39:41;;;;;;;10.20;7.15;;;;;;;;;;4953167;29;20023;-73
2023/04/20 04:42:07;;;;;;;13.00;7.90;;;;;;;;;;4948397;28;20050;-74
2023/04/20 04:44:33;;;;;;;12.43;7.88;;;;;;;;;;4953583;29;20042;-74
2023/04/20 04:47:01;;;;;;;12.60;7.93;;;;;;;;;;4952226;29;20034;-72
2023/04/20 04:49:28;;;;;;;15.30;8.57;;;;;;;;;;4953381;29;20385;-74
2023/04/20 04:51:54;;;;;;;13.68;8.15;;;;;;;;;;4953149;29;20020;-74
2023/04/20 04:54:20;;;;;;;11.13;7.80;;;;;;;;;;4947282;28;20157;-73
2023/04/20 04:56:46;;;;;;;13.05;8.43;;;;;;;;;;4959545;28;20177;-74
2023/04/20 04:59:12;;;;;;;11.45;7.30;;;;;;;;;;4952585;29;20039;-74
2023/04/20 05:01:38;;;;;;;12.77;7.72;;;;;;;;;;4948564;28;20058;-73
2023/04/20 05:04:04;;;;;;;15.40;8.50;;;;;;;;;;4951709;29;20061;-74
2023/04/20 05:06:31;;;;;;;9.60;7.40;;;;;;;;;;4952875;29;20097;-75
2023/04/20 05:08:57;;;;;;;14.75;8.40;;;;;;;;;;4952825;29;20127;-72
2023/04/20 05:11:23;;;;;;;9.20;7.55;;;;;;;;;;4947168;29;20098;-75
2023/04/20 05:13:49;;;;;;;13.45;8.30;;;;;;;;;;4947085;28;20078;-75
2023/04/20 05:16:15;;;;;;;11.25;7.47;;;;;;;;;;4947534;28;20055;-74
2023/04/20 05:18:41;;;;;;;15.50;8.68;;;;;;;;;;4955168;29;20032;-74
2023/04/20 05:21:07;;;;;;;11.10;7.72;;;;;;;;;;4956056;29;20393;-74
2023/04/20 05:23:33;;;;;;;10.70;7.57;;;;;;;;;;4956863;29;20019;-75
2023/04/20 05:25:59;;;;;;;12.45;8.50;;;;;;;;;;4956245;29;20033;-71
2023/04/20 05:28:25;;;;;;;15.93;9.38;;;;;;;;;;4956559;29;20381;-74
2023/04/20 05:30:54;;;;;;;16.50;8.65;;;;;;;;;;4936826;28;20027;-75
2023/04/20 05:33:20;;;;;;;13.88;7.50;;;;;;;;;;4955997;29;20124;-75
2023/04/20 05:35:46;;;;;;;13.27;7.78;;;;;;;;;;4957196;29;20388;-73
2023/04/20 05:38:12;;;;;;;12.05;7.75;;;;;;;;;;4955974;29;20162;-72
2023/04/20 05:40:38;;;;;;;13.18;8.30;;;;;;;;;;4957278;29;20066;-73
2023/04/20 05:43:04;;;;;;;11.05;7.45;;;;;;;;;;4956212;29;20027;-74
2023/04/20 05:45:31;;;;;;;11.77;7.88;;;;;;;;;;4945424;28;20576;-72
2023/04/20 05:47:57;;;;;;;14.52;8.23;;;;;;;;;;4954897;28;20356;-70
2023/04/20 05:50:24;;;;;;;11.63;7.50;;;;;;;;;;4956733;29;20034;-74
2023/04/20 05:52:50;;;;;;;10.98;7.18;;;;;;;;;;4956961;29;20098;-69
2023/04/20 05:55:17;;;;;;;11.07;7.10;;;;;;;;;;4956245;29;20027;-73
2023/04/20 05:57:43;;;;;;;11.65;7.40;;;;;;;;;;4956129;29;20496;-74
2023/04/20 06:00:14;;;;;;;14.90;8.45;;;;;;;;;;4955178;29;20090;-74
2023/04/20 06:02:40;;;;;;;11.00;7.15;;;;;;;;;;4950189;28;20078;-82
2023/04/20 06:05:08;;;;;;;10.00;6.90;;;;;;;;;;4955882;29;20031;-73
2023/04/20 06:07:34;;;;;;;12.65;7.75;;;;;;;;;;4944761;29;20019;-73
2023/04/20 06:10:00;;;;;;;16.08;7.38;;;;;;;;;;4947240;29;20090;-74
2023/04/20 06:12:28;;;;;;;12.70;6.63;;;;;;;;;;4956164;29;20472;-73
2023/04/20 06:14:55;;;;;;;8.23;6.47;;;;;;;;;;4956786;29;20039;-73
2023/04/20 06:17:21;;;;;;;9.35;7.22;;;;;;;;;;4955633;29;20072;-75
2023/04/20 06:19:47;;;;;;;10.40;6.85;;;;;;;;;;4954370;28;20397;-79
2023/04/20 06:22:13;;;;;;;11.57;7.35;;;;;;;;;;4954780;29;20038;-79
2023/04/20 06:24:41;;;;;;;10.82;6.68;;;;;;;;;;4956260;29;20090;-78
2023/04/20 06:27:07;;;;;;;9.82;7.20;;;;;;;;;;4953310;28;20039;-78
2023/04/20 06:29:33;;;;;;;14.70;7.50;;;;;;;;;;4960502;29;20480;-76
2023/04/20 06:31:58;;;;;;;12.35;6.90;;;4.40;99.90;;;;;;4947724;28;20039;-74
2023/04/20 06:34:24;;;;;;;9.02;6.15;;;4.40;99.90;;;;;;4954961;29;20443;-77
2023/04/20 06:36:50;;;;;;;13.35;6.88;;;4.40;99.90;;;;;;4954312;29;20035;-78
2023/04/20 06:39:16;;;;;;;9.82;6.75;;;4.50;99.90;;;;;;4954471;29;20212;-77
2023/04/20 06:41:42;;;;;;;10.77;7.07;;;4.60;99.90;;;;;;4950833;29;20031;-77
2023/04/20 06:44:08;;;;;;;12.43;7.47;;;4.70;99.90;;;;;;4953911;29;20035;-77
2023/04/20 06:46:34;;;;;;;12.25;7.97;;;4.80;99.90;;;;;;4954985;29;20038;-76
2023/04/20 06:49:01;;;;;;;15.52;8.02;;;4.90;99.90;;;;;;4954250;29;20030;-73
2023/04/20 06:51:28;;;;;;;11.02;6.82;;;5.00;99.90;;;;;;4951901;28;20046;-76
2023/04/20 06:53:54;;;;;;;14.43;7.30;;;5.20;99.90;;;;;;4953678;29;20023;-76
2023/04/20 06:56:20;;;;;;;12.88;7.30;;;5.30;99.90;;;;;;4953965;29;20174;-76
2023/04/20 06:58:46;;;;;;;12.43;6.63;;;5.30;99.90;;;;;;4955092;29;20105;-78
2023/04/20 07:01:11;;;;;;;11.77;6.93;;;5.40;99.90;;;;;;4950771;29;20031;-77
2023/04/20 07:03:37;;;;;;;13.10;7.38;;;5.50;99.90;;;;;;4955549;29;20412;-77
2023/04/20 07:06:03;;;;;;;10.70;7.30;;;5.60;99.90;;;;;;4954388;28;20031;-75
2023/04/20 07:08:29;;;;;;;14.18;7.35;;;5.60;99.90;;;;;;4964362;28;20034;-78
2023/04/20 07:10:55;;;;;;;11.52;6.93;;;5.80;99.90;;;;;;4954247;29;20027;-78
2023/04/20 07:13:20;;;;;;;13.88;6.85;;;5.70;99.90;;;;;;4953210;29;20522;-78
2023/04/20 07:15:46;;;;;;;12.30;7.68;;;5.80;99.90;;;;;;4954749;29;20613;-77
2023/04/20 07:18:11;;;;;;;13.07;7.68;;;5.90;99.90;;;;;;4953616;29;20449;-76
2023/04/20 07:20:37;;;;;;;11.25;7.10;;;6.00;99.90;;;;;;4954294;29;20062;-77
2023/04/20 07:23:03;;;;;;;14.90;7.40;;;6.10;99.90;;;;;;4953362;29;20119;-78
2023/04/20 07:25:30;;;;;;;12.60;7.88;;;6.10;99.90;;;;;;4954524;29;20053;-78
2023/04/20 07:27:56;;;;;;;13.02;7.22;;;6.00;99.90;;;;;;4953886;29;20031;-74
2023/04/20 07:30:22;;;;;;;13.23;7.85;;;6.10;99.90;;;;;;4953908;29;20039;-77
2023/04/20 07:32:48;;;;;;;12.88;7.03;;;6.30;99.90;;;;;;4954105;29;20027;-79
2023/04/20 07:35:13;;;;;;;12.80;7.13;;;6.50;99.90;;;;;;4953188;29;20106;-78
2023/04/20 07:37:39;;;;;;;10.85;7.00;;;6.70;99.90;;;;;;4954054;28;20225;-77
2023/04/20 07:40:05;;;;;;;11.50;7.22;;;6.80;99.90;;;;;;4952974;29;20035;-78
2023/04/20 07:42:33;;;;;;;12.98;7.55;;;6.90;99.90;;;;;;4947455;29;20381;-77
2023/04/20 07:44:59;;;;;;;13.23;7.70;;;7.10;99.90;;;;;;4950537;29;20038;-75
2023/04/20 07:47:24;;;;;;;8.95;6.95;;;7.30;99.90;;;;;;4953214;29;20861;-78
2023/04/20 07:49:50;;;;;;;10.75;7.15;;;7.30;99.90;;;;;;4954797;29;20027;-78
2023/04/20 07:52:17;;;;;;;12.23;7.43;;;7.30;99.90;;;;;;4952977;29;20027;-78
2023/04/20 07:54:43;;;;;;;11.73;7.55;;;7.30;99.90;;;;;;4953981;29;20487;-78
2023/04/20 07:57:10;;;;;;;14.00;7.65;;;7.40;99.90;;;;;;4949915;29;20024;-77
2023/04/20 07:59:35;;;;;;;18.98;8.00;;;7.40;99.90;;;;;;4937069;29;20483;-78
2023/04/20 08:02:02;;;;;;;9.48;7.10;;;7.50;99.90;;;;;;4950487;29;20028;-78
2023/04/20 08:04:28;;;;;;;9.07;7.15;;;7.60;99.90;;;;;;4952725;28;20063;-79
2023/04/20 08:06:54;;;;;;;14.18;6.90;;;7.80;99.90;;;;;;4953983;29;20464;-78
2023/04/20 08:09:19;;;;;;;9.77;7.47;;;7.90;99.90;;;;;;4950577;28;20125;-79
2023/04/20 08:11:45;;;;;;;10.82;7.55;;;7.90;99.90;;;;;;4954714;29;20031;-78
2023/04/20 08:14:14;;;;;;;12.20;7.80;;;7.80;99.90;;;;;;4954525;29;20035;-80
2023/04/20 08:16:40;;;;;;;10.88;6.47;;;7.70;99.90;;;;;;4937905;29;20043;-76
2023/04/20 08:19:09;;;;;;;12.40;7.38;;;7.70;99.90;;;;;;4959145;29;20034;-78
2023/04/20 08:21:41;;;;;;;13.18;7.50;;;7.60;99.90;;;;;;4943575;29;20043;-79
2023/04/20 08:24:08;;;;;;;8.80;6.88;;;7.50;99.90;;;;;;4959209;29;20042;-79
2023/04/20 08:26:34;;;;;;;11.52;6.30;;;7.40;99.90;;;;;;4960967;29;20152;-79
2023/04/20 08:29:00;;;;;;;13.50;7.95;;;7.30;99.90;;;;;;4959572;29;20034;-74
2023/04/20 08:31:26;;;;;;;16.08;7.85;;;7.20;99.90;;;;;;4955211;29;20477;-79
2023/04/20 08:33:52;;;;;;;12.15;8.32;;;7.10;99.90;;;;;;4953676;29;20038;-80
2023/04/20 08:36:18;;;;;;;10.55;7.38;;;7.10;99.90;;;;;;4952129;29;20039;-78
2023/04/20 08:38:43;;;;;;;14.48;7.97;;;7.00;99.90;;;;;;4936534;29;20043;-80
2023/04/20 08:41:13;;;;;;;17.00;8.30;;;6.80;99.90;;;;;;4952203;29;20071;-80
2023/04/20 08:43:39;;;;;;;13.93;7.97;;;6.80;99.90;;;;;;4949244;29;20031;-79
2023/04/20 08:46:06;;;;;;;12.40;7.63;;;6.70;99.90;;;;;;4952292;29;20061;-79
2023/04/20 08:48:36;;;;;;;14.35;7.95;;;6.60;99.90;;;;;;4952207;28;20499;-78
2023/04/20 08:51:05;;;;;;;10.05;7.43;;;6.50;99.90;;;;;;4946686;29;20354;-75
2023/04/20 08:53:31;;;;;;;15.32;8.18;;;6.60;99.90;;;;;;4952725;29;20030;-75
2023/04/20 08:55:57;;;;;;;14.57;7.57;;;6.60;99.90;;;;;;4953019;29;20035;-77
2023/04/20 08:58:32;;;;;;;17.05;7.95;;;6.60;99.90;;;;;;4944895;29;20035;-78
2023/04/20 09:00:59;;;;;;;10.45;7.75;;;6.60;99.90;;;;;;4952775;29;20027;-73
2023/04/20 09:03:39;;;;;;;13.57;7.45;;;6.60;99.90;;;;;;4951830;29;20138;-78
2023/04/20 09:06:12;;;;;;;13.48;8.07;;;6.60;99.90;;;;;;4952164;29;20042;-79
2023/04/20 09:08:40;;;;;;;13.02;8.40;;;6.60;99.90;;;;;;4937000;29;20031;-79
2023/04/20 09:11:06;;;;;;;9.95;7.85;;;6.70;99.90;;;;;;4948872;29;20047;-78
2023/04/20 09:13:32;;;;;;;13.20;7.57;;;6.70;99.90;;;;;;4947450;28;20463;-79
2023/04/20 09:16:12;;;;;;;15.35;8.40;;;6.70;99.90;;;;;;4948006;29;20047;-72
2023/04/20 09:18:38;;;;;;;16.15;8.30;;;6.80;99.90;;;;;;4951707;29;20266;-74
2023/04/20 09:21:10;;;;;;;13.85;7.68;;;6.70;99.90;;;;;;4948443;29;20118;-73
2023/04/20 09:23:35;;;;;;;11.82;7.97;;;6.70;99.90;;;;;;4952020;29;20503;-72
2023/04/20 09:26:01;;;;;;;23.08;8.45;;;6.60;99.90;;;;;;4952844;28;20039;-71
2023/04/20 09:28:40;;;;;;;14.30;8.35;;;6.60;99.90;;;;;;4956366;28;20366;-72
2023/04/20 09:31:22;;;;;;;19.13;8.70;;;6.60;99.90;;;;;;4949079;29;20027;-74
2023/04/20 09:34:02;;;;;;;13.88;8.50;;;6.70;99.90;;;;;;4952644;29;20496;-74
2023/04/20 09:36:45;;;;;;;12.43;8.23;;;6.80;99.90;;;;;;4949555;29;20082;-74
2023/04/20 09:39:22;;;;;;;12.70;7.68;;;6.90;99.90;;;;;;4946340;29;20099;-75
2023/04/20 09:41:49;;;;;;;11.75;7.90;;;7.00;99.90;;;;;;4949688;28;20031;-76
2023/04/20 09:44:16;;;;;;;12.68;8.00;;;7.00;99.90;;;;;;4951932;29;20138;-75
2023/04/20 09:46:43;;;;;;;10.63;8.00;;;7.10;99.90;;;;;;4945343;29;20101;-73
2023/04/20 09:49:10;;;;;;;13.85;8.55;;;7.00;99.90;;;;;;4952656;29;20031;-73
2023/04/20 09:51:40;;;;;;;17.58;8.23;;;6.90;99.90;;;;;;4946926;29;20094;-74
2023/04/20 09:54:06;;;;;;;12.25;7.95;;;6.90;99.90;;;;;;4948027;29;20031;-73
2023/04/20 09:56:33;;;;;;;13.90;8.60;;;6.80;99.90;;;;;;4951278;29;20373;-74
2023/04/20 09:59:00;;;;;;;15.75;8.13;;;6.90;99.90;;;;;;4952073;29;20392;-74
2023/04/20 10:01:33;;;;;;;16.98;8.07;;;6.80;99.90;;;;;;4954625;28;20034;-76
2023/04/20 10:04:02;;;;;;;13.32;8.20;;;6.80;99.90;;;;;;4954911;29;20047;-71
2023/04/20 10:06:29;;;;;;;11.20;7.65;;;6.90;99.90;;;;;;4955930;29;20071;-74
2023/04/20 10:08:55;;;;;;;37.58;10.50;;;7.00;99.90;;;;;;4957848;29;20038;-78
2023/04/20 10:11:40;;;;;;;19.38;8.27;;;7.00;99.90;;;;;;4952024;29;20035;-79
2023/04/20 10:14:17;;;;;;;13.55;7.75;;;7.10;99.90;;;;;;4963150;29;20037;-74
2023/04/20 10:16:44;;;;;;;15.77;8.48;;;7.10;99.90;;;;;;4970990;28;20041;-75
2023/04/20 10:19:10;;;;;;;12.13;7.88;;;7.30;99.90;;;;;;4975479;28;20043;-78
2023/04/20 10:21:46;;;;;;;10.85;7.57;;;7.30;99.90;;;;;;4961749;29;20031;-77
2023/04/20 10:24:12;;;;;;;16.73;8.35;;;7.50;99.90;;;;;;4957814;29;20039;-79
2023/04/20 10:26:40;;;;;;;14.85;8.20;;;7.50;99.90;;;;;;4956622;29;20391;-76
2023/04/20 10:29:07;;;;;;;11.15;7.55;;;7.40;99.90;;;;;;4955504;29;20063;-76
2023/04/20 10:31:40;;;;;;;12.15;8.30;;;7.40;99.90;;;;;;4954990;29;20031;-77
2023/04/20 10:34:06;;;;;;;11.85;8.20;;;7.40;99.90;;;;;;4955815;29;20476;-78
2023/04/20 10:36:36;;;;;;;11.15;8.48;;;7.40;99.90;;;;;;4954384;29;20042;-78
2023/04/20 10:39:15;;;;;;;11.83;8.43;;;7.40;99.90;;;;;;4959321;29;20035;-79
2023/04/20 10:41:57;;;;;;;9.98;7.80;;;7.40;99.90;;;;;;4959555;29;20517;-77
2023/04/20 10:44:26;;;;;;;12.00;8.25;;;7.30;99.90;;;;;;4952097;29;20476;-76
2023/04/20 10:46:52;;;;;;;9.32;7.05;;;7.20;99.90;;;;;;4947850;29;20065;-76
2023/04/20 10:49:18;;;;;;;8.98;6.75;;;7.10;99.90;;;;;;4954328;28;20031;-76
2023/04/20 10:51:51;;;;;;;11.05;8.55;;;7.00;99.90;;;;;;4954421;29;20028;-75
2023/04/20 10:54:17;;;;;;;10.90;8.55;;;7.00;99.90;;;;;;4954434;29;20150;-74
2023/04/20 10:56:44;;;;;;;10.93;7.80;;;6.90;99.90;;;;;;4953779;29;20560;-74
2023/04/20 10:59:15;;;;;;;11.43;8.45;;;6.80;99.90;;;;;;4954262;29;20192;-76
2023/04/20 11:01:41;;;;;;;10.63;7.40;;;6.80;99.90;;;;;;4954164;29;20062;-76
2023/04/20 11:04:09;;;;;;;10.35;6.97;;;6.80;99.90;;;;;;4953132;29;20074;-76
2023/04/20 11:06:35;;;;;;;9.43;7.43;;;6.70;99.90;;;;;;4952789;29;20059;-73
2023/04/20 11:09:01;;;;;;;10.55;7.63;;;6.60;99.90;;;;;;4954097;29;20464;-75
2023/04/20 11:11:27;;;;;;;11.30;7.38;;;6.50;99.90;;;;;;4953723;28;20027;-75
2023/04/20 11:14:06;;;;;;;10.45;7.35;;;6.50;99.90;;;;;;4954296;29;20061;-76
2023/04/20 11:16:31;;;;;;;10.02;7.63;;;6.50;99.90;;;;;;4950762;29;20042;-76
2023/04/20 11:18:58;;;;;;;9.93;7.43;;;6.40;99.90;;;;;;4954097;29;20404;-73
2023/04/20 11:21:34;;;;;;;11.43;8.90;;;6.50;99.90;;;;;;4957270;28;20068;-75
2023/04/20 11:24:00;;;;;;;14.35;8.85;;;6.60;99.90;;;;;;4952093;29;20038;-74
2023/04/20 11:26:42;;;;;;;19.27;9.95;;;6.60;99.90;;;;;;4953860;29;20381;-76
2023/04/20 11:29:08;;;;;;;16.55;9.23;;;6.60;99.90;;;;;;4955378;28;20031;-75
2023/04/20 11:31:33;;;;;;;13.40;9.30;;;6.70;99.90;;;;;;4954395;29;20102;-77
2023/04/20 11:33:59;;;;;;;14.07;9.63;;;6.80;99.90;;;;;;4955777;28;20110;-73
2023/04/20 11:36:28;;;;;;;13.90;10.23;;;6.90;99.90;;;;;;4954346;29;20417;-74
2023/04/20 11:38:54;;;;;;;16.05;10.63;;;7.10;99.90;;;;;;4954788;29;20035;-74
2023/04/20 11:41:20;;;;;;;13.43;9.50;;;7.20;99.90;;;;;;4953006;29;20150;-74
2023/04/20 11:43:47;;;;;;;12.88;9.88;;;7.20;99.90;;;;;;4954645;29;20098;-75
2023/04/20 11:46:18;;;;;;;12.50;9.20;;;7.20;99.90;;;;;;4953512;28;20042;-75
2023/04/20 11:48:45;;;;;;;13.60;10.43;;;7.10;99.90;;;;;;4955104;29;20115;-75
2023/04/20 11:51:11;;;;;;;13.70;10.00;;;7.30;99.90;;;;;;4953360;29;20385;-75
2023/04/20 11:53:36;;;;;;;15.50;11.05;;;7.30;99.90;;;;;;4954874;29;20034;-76
2023/04/20 11:56:03;;;;;;;14.57;10.93;;;7.20;99.90;;;;;;4953591;29;20035;-73
2023/04/20 11:58:28;;;;;;;14.70;10.50;;;7.30;99.90;;;;;;4953681;29;20027;-76
2023/04/20 12:00:54;;;;;;;15.20;10.70;;;7.30;99.90;;;;;;4954087;29;20344;-75
2023/04/20 12:03:20;;;;;;;15.50;10.63;;;7.30;99.90;;;;;;4952532;29;20070;-75
2023/04/20 12:05:45;;;;;;;14.68;10.23;;;7.30;99.90;;;;;;4954210;29;20031;-74
2023/04/20 12:08:11;;;;;;;14.57;10.57;;;7.30;99.90;;;;;;4952243;29;20440;-72
2023/04/20 12:10:38;;;;;;;12.15;8.90;;;7.30;99.90;;;;;;4936194;29;20122;-73
2023/04/20 12:13:04;;;;;;;12.20;9.35;;;7.30;99.90;;;;;;4952165;29;20039;-75
2023/04/20 12:15:30;;;;;;;12.95;10.38;;;7.40;99.90;;;;;;4953553;29;20041;-74
2023/04/20 12:17:56;;;;;;;12.73;9.30;;;7.40;99.90;;;;;;4952799;29;20043;-72
2023/04/20 12:20:22;;;;;;;11.32;8.18;;;7.50;99.90;;;;;;4953770;29;20055;-74
2023/04/20 12:22:47;;;;;;;10.65;8.27;;;7.50;99.90;;;;;;4954233;28;20503;-75
2023/04/20 12:25:13;;;;;;;13.13;9.13;;;7.40;99.90;;;;;;4960512;28;20046;-74
2023/04/20 12:27:38;;;;;;;10.75;8.35;;;7.40;99.90;;;;;;4952709;29;20042;-73
2023/04/20 12:30:05;;;;;;;10.80;8.05;;;7.40;99.90;;;;;;4958344;29;20031;-75
2023/04/20 12:32:31;;;;;;;12.93;8.63;;;7.50;99.90;;;;;;4967069;28;20358;-74
2023/04/20 12:34:56;;;;;;;11.98;8.45;;;7.50;99.90;;;;;;4953997;29;20094;-71
2023/04/20 12:37:22;;;;;;;10.35;7.95;;;7.60;99.90;;;;;;4952303;29;20031;-74
2023/04/20 12:39:47;;;;;;;10.25;6.95;;;7.60;99.90;;;;;;4953092;29;20027;-73
2023/04/20 12:42:13;;;;;;;11.32;8.77;;;7.60;99.90;;;;;;4951910;29;20041;-74
2023/04/20 12:44:39;;;;;;;9.98;7.70;;;7.70;99.90;;;;;;4953292;29;20398;-74
2023/04/20 12:47:04;;;;;;;8.07;6.72;;;7.80;99.90;;;;;;4951653;29;20519;-74
2023/04/20 12:49:30;;;;;;;8.98;7.07;;;7.90;99.90;;;;;;4952812;29;20035;-74
2023/04/20 12:51:55;;;;;;;10.45;7.10;;;7.90;99.90;;;;;;4952588;29;20095;-73
2023/04/20 12:54:21;;;;;;;9.15;6.80;;;8.00;99.90;;;;;;4935428;29;20552;-74
2023/04/20 12:56:47;;;;;;;10.35;7.00;;;7.90;99.90;;;;;;4952239;29;20041;-74
2023/04/20 12:59:13;;;;;;;10.55;7.05;;;8.00;99.90;;;;;;4952183;29;20098;-74
2023/04/20 13:01:38;;;;;;;10.63;7.85;;;8.00;99.90;;;;;;4951445;29;20038;-73
2023/04/20 13:04:04;;;;;;;10.02;7.43;;;8.00;99.90;;;;;;4950950;29;20051;-74
2023/04/20 13:06:31;;;;;;;9.02;7.45;;;8.00;99.90;;;;;;4951857;29;20543;-74
2023/04/20 13:08:57;;;;;;;11.35;7.88;;;8.10;99.90;;;;;;4952701;29;20333;-71
2023/04/20 13:11:22;;;;;;;9.63;7.47;;;8.10;99.90;;;;;;4951925;29;20039;-73
2023/04/20 13:13:48;;;;;;;11.80;7.57;;;8.10;99.90;;;;;;4951966;29;20138;-73
2023/04/20 13:16:14;;;;;;;10.63;7.75;;;8.00;99.90;;;;;;4951397;29;20046;-73
2023/04/20 13:18:39;;;;;;;10.38;7.10;;;8.10;99.90;;;;;;4952422;29;20035;-75
2023/04/20 13:21:05;;;;;;;9.93;7.47;;;8.10;99.90;;;;;;4951623;29;20035;-76